createdAt,value
2023-03-05T00:00:28.338Z,20.47
2023-03-05T00:03:03.245Z,21.33
2023-03-05T00:05:38.186Z,22.60
2023-03-05T00:08:13.077Z,21.97
2023-03-05T00:11:09.440Z,21.90
2023-03-05T00:13:44.434Z,30.70
2023-03-05T00:16:20.221Z,21.63
2023-03-05T00:18:57.178Z,21.13
2023-03-05T00:21:37.945Z,22.40
2023-03-05T00:24:18.539Z,19.67
2023-03-05T00:26:54.584Z,23.33
2023-03-05T00:29:31.811Z,21.17
2023-03-05T00:32:06.979Z,19.87
2023-03-05T00:34:41.903Z,19.20
2023-03-05T00:37:17.275Z,20.60
2023-03-05T00:39:52.205Z,25.30
2023-03-05T00:42:27.152Z,22.37
2023-03-05T00:45:02.076Z,23.20
2023-03-05T00:47:37.490Z,22.40
2023-03-05T00:50:12.618Z,22.20
2023-03-05T00:52:47.502Z,24.20
2023-03-05T00:55:22.644Z,23.57
2023-03-05T00:57:57.810Z,24.13
2023-03-05T01:00:32.723Z,24.37
2023-03-05T01:03:07.974Z,23.20
2023-03-05T01:05:43.426Z,22.80
2023-03-05T01:08:18.442Z,18.37
2023-03-05T01:10:53.343Z,20.80
2023-03-05T01:13:28.427Z,21.10
2023-03-05T01:16:04.265Z,18.23
2023-03-05T01:18:40.384Z,20.97
2023-03-05T01:21:15.381Z,19.00
2023-03-05T01:23:50.383Z,19.67
2023-03-05T01:26:25.283Z,20.17
2023-03-05T01:29:00.213Z,21.03
2023-03-05T01:31:35.223Z,20.80
2023-03-05T01:34:10.492Z,16.80
2023-03-05T01:36:45.413Z,20.70
2023-03-05T01:39:20.427Z,18.40
2023-03-05T01:41:55.446Z,21.13
2023-03-05T01:44:31.619Z,22.97
2023-03-05T01:47:06.786Z,21.13
2023-03-05T01:49:42.251Z,21.57
2023-03-05T01:52:22.518Z,21.10
2023-03-05T01:55:03.781Z,18.87
2023-03-05T01:57:47.018Z,20.10
2023-03-05T02:00:33.349Z,21.73
2023-03-05T02:03:11.393Z,20.67
2023-03-05T02:05:46.513Z,17.63
2023-03-05T02:08:22.697Z,27.27
2023-03-05T02:10:57.878Z,17.63
2023-03-05T02:13:40.680Z,26.50
2023-03-05T02:16:15.698Z,23.50
2023-03-05T02:18:50.678Z,16.87
2023-03-05T02:21:37.173Z,15.20
2023-03-05T02:24:36.249Z,17.00
2023-03-05T02:27:13.997Z,21.23
2023-03-05T02:29:49.753Z,21.80
2023-03-05T02:32:24.910Z,21.83
2023-03-05T02:35:00.258Z,24.70
2023-03-05T02:37:36.037Z,24.13
2023-03-05T02:40:13.080Z,27.23
2023-03-05T02:42:49.687Z,24.10
2023-03-05T02:45:24.742Z,25.40
2023-03-05T02:47:59.712Z,23.27
2023-03-05T02:50:35.075Z,18.43
2023-03-05T02:53:10.350Z,23.27
2023-03-05T02:55:50.147Z,22.77
2023-03-05T02:58:25.081Z,23.83
2023-03-05T03:01:00.263Z,20.80
2023-03-05T03:03:35.226Z,25.73
2023-03-05T03:06:10.514Z,18.90
2023-03-05T03:08:45.420Z,25.83
2023-03-05T03:11:21.460Z,16.50
2023-03-05T03:13:56.555Z,20.70
2023-03-05T03:16:31.527Z,17.30
2023-03-05T03:19:06.439Z,19.47
2023-03-05T03:21:41.536Z,17.70
2023-03-05T03:24:16.528Z,14.07
2023-03-05T03:26:51.440Z,16.37
2023-03-05T03:29:26.417Z,15.90
2023-03-05T03:32:01.287Z,14.70
2023-03-05T03:34:36.425Z,15.27
2023-03-05T03:37:11.458Z,19.57
2023-03-05T03:39:46.401Z,14.10
2023-03-05T03:42:22.838Z,15.10
2023-03-05T03:44:57.750Z,12.00
2023-03-05T03:47:32.666Z,14.33
2023-03-05T03:50:08.545Z,16.83
2023-03-05T03:52:43.580Z,15.37
2023-03-05T03:55:18.713Z,13.17
2023-03-05T03:57:53.841Z,14.90
2023-03-05T04:00:28.754Z,16.13
2023-03-05T04:03:04.274Z,17.20
2023-03-05T04:05:39.236Z,16.60
2023-03-05T04:08:14.102Z,17.03
2023-03-05T04:10:49.012Z,15.80
2023-03-05T04:13:23.900Z,17.03
2023-03-05T04:15:59.186Z,15.93
2023-03-05T04:18:34.244Z,21.30
2023-03-05T04:21:09.798Z,16.73
2023-03-05T04:23:44.717Z,17.20
2023-03-05T04:26:19.704Z,13.33
2023-03-05T04:28:55.331Z,18.70
2023-03-05T04:31:30.330Z,16.00
2023-03-05T04:34:05.281Z,13.13
2023-03-05T04:36:40.192Z,15.47
2023-03-05T04:39:15.265Z,17.70
2023-03-05T04:41:50.224Z,20.57
2023-03-05T04:44:26.025Z,17.27
2023-03-05T04:47:00.984Z,17.00
2023-03-05T04:49:35.876Z,11.93
2023-03-05T04:52:12.965Z,17.57
2023-03-05T04:54:47.828Z,17.67
2023-03-05T04:57:24.049Z,16.63
2023-03-05T04:59:59.287Z,18.17
2023-03-05T05:02:34.754Z,17.97
2023-03-05T05:05:12.863Z,16.53
2023-03-05T05:07:47.812Z,16.40
2023-03-05T05:10:23.667Z,20.37
2023-03-05T05:12:58.633Z,14.70
2023-03-05T05:15:33.818Z,18.03
2023-03-05T05:18:08.737Z,16.47
2023-03-05T05:20:44.134Z,15.93
2023-03-05T05:23:19.408Z,17.63
2023-03-05T05:25:59.980Z,13.27
2023-03-05T05:28:35.974Z,17.43
2023-03-05T05:31:13.786Z,15.60
2023-03-05T05:33:49.965Z,20.57
2023-03-05T05:36:25.142Z,19.37
2023-03-05T05:39:00.044Z,21.27
2023-03-05T05:41:34.997Z,18.70
2023-03-05T05:44:09.952Z,18.43
2023-03-05T05:46:45.033Z,14.63
2023-03-05T05:49:20.040Z,20.50
2023-03-05T05:51:54.989Z,19.20
2023-03-05T05:54:30.021Z,17.97
2023-03-05T05:57:05.117Z,23.67
2023-03-05T05:59:41.630Z,17.30
2023-03-05T06:02:16.601Z,18.27
2023-03-05T06:04:51.869Z,18.70
2023-03-05T06:07:26.853Z,19.40
2023-03-05T06:10:02.115Z,18.83
2023-03-05T06:12:37.145Z,21.83
2023-03-05T06:15:12.084Z,23.50
2023-03-05T06:17:47.931Z,22.30
2023-03-05T06:20:23.194Z,18.80
2023-03-05T06:22:58.192Z,16.83
2023-03-05T06:25:33.114Z,18.23
2023-03-05T06:28:08.088Z,23.07
2023-03-05T06:30:43.164Z,18.03
2023-03-05T06:33:18.255Z,19.63
2023-03-05T06:35:53.182Z,19.10
2023-03-05T06:38:28.053Z,20.77
2023-03-05T06:41:09.229Z,19.20
2023-03-05T06:43:46.505Z,21.47
2023-03-05T06:46:29.113Z,21.23
2023-03-05T06:49:04.483Z,16.10
2023-03-05T06:51:40.388Z,21.73
2023-03-05T06:54:17.981Z,21.60
2023-03-05T07:00:10.208Z,21.33
2023-03-05T07:02:57.393Z,21.50
2023-03-05T07:05:34.159Z,17.47
2023-03-05T07:08:09.481Z,19.40
2023-03-05T07:10:44.810Z,18.83
2023-03-05T07:13:19.928Z,25.17
2023-03-05T07:15:55.111Z,23.50
2023-03-05T07:18:30.163Z,20.60
2023-03-05T07:21:07.525Z,19.03
2023-03-05T07:23:42.607Z,23.43
2023-03-05T07:26:18.008Z,19.27
2023-03-05T07:28:53.210Z,20.80
2023-03-05T07:31:31.027Z,19.07
2023-03-05T07:34:06.571Z,23.57
2023-03-05T07:36:42.902Z,16.27
2023-03-05T07:39:21.387Z,20.87
2023-03-05T07:41:56.311Z,19.10
2023-03-05T07:44:39.027Z,20.40
2023-03-05T07:47:14.216Z,23.17
2023-03-05T07:49:50.144Z,22.20
2023-03-05T07:52:25.798Z,25.80
2023-03-05T07:55:00.816Z,20.73
2023-03-05T07:57:38.089Z,21.10
2023-03-05T08:00:13.794Z,22.50
2023-03-05T08:02:50.287Z,18.93
2023-03-05T08:05:25.341Z,19.87
2023-03-05T08:08:00.382Z,20.73
2023-03-05T08:10:36.824Z,19.90
2023-03-05T08:13:11.867Z,22.30
2023-03-05T08:15:46.853Z,18.97
2023-03-05T08:18:21.886Z,16.17
2023-03-05T08:20:56.979Z,21.10
2023-03-05T08:23:34.422Z,17.30
2023-03-05T08:26:20.590Z,20.23
2023-03-05T08:28:56.166Z,17.57
2023-03-05T08:31:32.322Z,20.50
2023-03-05T08:34:07.567Z,17.77
2023-03-05T08:36:42.542Z,17.53
2023-03-05T08:39:18.377Z,17.23
2023-03-05T08:41:53.964Z,18.73
2023-03-05T08:44:29.051Z,20.47
2023-03-05T08:47:04.099Z,19.07
2023-03-05T08:49:39.328Z,18.97
2023-03-05T08:52:14.662Z,17.47
2023-03-05T08:54:50.270Z,17.60
2023-03-05T08:57:25.320Z,16.70
2023-03-05T09:00:00.270Z,21.40
2023-03-05T09:02:35.429Z,16.80
2023-03-05T09:05:10.794Z,19.67
2023-03-05T09:07:45.998Z,14.83
2023-03-05T09:10:21.318Z,16.87
2023-03-05T09:12:56.393Z,17.20
2023-03-05T09:15:31.795Z,20.67
2023-03-05T09:18:08.981Z,18.97
2023-03-05T09:20:43.877Z,16.70
2023-03-05T09:23:19.311Z,17.07
2023-03-05T09:25:54.258Z,17.67
2023-03-05T09:28:29.229Z,18.90
2023-03-05T09:31:07.590Z,15.30
2023-03-05T09:33:42.580Z,19.53
2023-03-05T09:36:25.403Z,17.43
2023-03-05T09:39:01.262Z,17.60
2023-03-05T09:41:56.885Z,18.50
2023-03-05T09:45:03.959Z,21.53
2023-03-05T09:48:01.440Z,18.47
2023-03-05T09:51:08.645Z,15.70
2023-03-05T09:54:02.642Z,19.50
2023-03-05T09:57:04.430Z,22.00
2023-03-05T09:59:48.659Z,17.60
2023-03-05T10:02:35.684Z,18.73
2023-03-05T10:05:18.809Z,15.40
2023-03-05T10:08:01.060Z,18.67
2023-03-05T10:10:51.570Z,18.83
2023-03-05T10:13:35.016Z,17.30
2023-03-05T10:16:53.880Z,18.60
2023-03-05T10:20:14.735Z,19.40
2023-03-05T10:23:11.664Z,18.13
2023-03-05T10:25:55.319Z,20.33
2023-03-05T10:28:41.702Z,18.50
2023-03-05T10:31:25.497Z,19.07
2023-03-05T10:34:28.002Z,17.87
2023-03-05T10:37:47.123Z,15.63
2023-03-05T10:40:51.406Z,20.90
2023-03-05T10:43:47.963Z,19.27
2023-03-05T10:46:33.497Z,23.50
2023-03-05T10:49:25.073Z,17.67
2023-03-05T10:52:14.170Z,22.27
2023-03-05T10:54:50.389Z,20.33
2023-03-05T10:57:31.703Z,20.40
2023-03-05T11:00:06.693Z,23.03
2023-03-05T11:02:58.470Z,17.47
2023-03-05T11:05:47.010Z,22.87
2023-03-05T11:08:30.187Z,22.53
2023-03-05T11:11:18.960Z,22.93
2023-03-05T11:14:00.536Z,19.20
2023-03-05T11:16:50.845Z,24.13
2023-03-05T11:19:33.709Z,21.30
2023-03-05T11:22:17.206Z,23.83
2023-03-05T11:25:06.132Z,20.67
2023-03-05T11:27:56.165Z,20.17
2023-03-05T11:30:36.952Z,19.70
2023-03-05T11:33:22.473Z,16.67
2023-03-05T11:36:22.302Z,18.07
2023-03-05T11:39:07.814Z,21.20
2023-03-05T11:41:51.740Z,16.87
2023-03-05T11:44:34.408Z,16.43
2023-03-05T11:47:48.327Z,21.70
2023-03-05T11:50:29.912Z,17.70
2023-03-05T11:53:19.265Z,23.70
2023-03-05T11:56:26.137Z,14.07
2023-03-05T11:59:29.487Z,15.03
2023-03-05T12:02:19.525Z,15.23
2023-03-05T12:04:56.007Z,12.03
2023-03-05T12:07:58.296Z,17.57
2023-03-05T12:10:33.253Z,16.77
2023-03-05T12:13:23.022Z,16.70
2023-03-05T12:16:31.310Z,19.90
2023-03-05T12:19:40.459Z,17.07
2023-03-05T12:22:25.286Z,18.27
2023-03-05T12:25:33.677Z,18.33
2023-03-05T12:28:37.036Z,15.47
2023-03-05T12:31:38.640Z,20.10
2023-03-05T12:34:42.236Z,18.93
2023-03-05T12:37:23.380Z,17.70
2023-03-05T12:40:42.953Z,18.50
2023-03-05T12:43:34.687Z,17.47
2023-03-05T12:46:25.827Z,20.33
2023-03-05T12:49:10.729Z,15.00
2023-03-05T12:51:55.115Z,17.33
2023-03-05T12:54:42.283Z,13.33
2023-03-05T12:57:26.420Z,12.47
2023-03-05T13:00:27.874Z,17.17
2023-03-05T13:03:09.820Z,15.60
2023-03-05T13:05:55.175Z,16.87
2023-03-05T13:08:36.159Z,16.37
2023-03-05T13:11:21.142Z,17.00
2023-03-05T13:13:56.666Z,15.63
2023-03-05T13:16:38.991Z,16.07
2023-03-05T13:19:18.153Z,17.83
2023-03-05T13:22:02.718Z,14.37
2023-03-05T13:24:37.623Z,15.70
2023-03-05T13:27:33.028Z,14.93
2023-03-05T13:30:28.992Z,14.90
2023-03-05T13:33:05.821Z,13.93
2023-03-05T13:35:46.816Z,17.50
2023-03-05T13:38:39.558Z,14.60
2023-03-05T13:41:21.829Z,16.37
2023-03-05T13:44:01.860Z,19.03
2023-03-05T13:46:39.832Z,15.33
2023-03-05T13:49:27.305Z,14.17
2023-03-05T13:52:02.960Z,15.63
2023-03-05T13:54:38.264Z,13.20
2023-03-05T13:57:42.826Z,10.90
2023-03-05T14:00:37.556Z,16.73
2023-03-05T14:03:26.607Z,13.80
2023-03-05T14:06:08.167Z,17.90
2023-03-05T14:08:43.313Z,14.90
2023-03-05T14:11:19.732Z,15.03
2023-03-05T14:14:16.873Z,13.27
2023-03-05T14:16:52.292Z,15.93
2023-03-05T14:19:39.254Z,14.47
2023-03-05T14:22:32.176Z,16.93
2023-03-05T14:25:39.693Z,18.83
2023-03-05T14:28:17.385Z,15.10
2023-03-05T14:30:56.188Z,16.20
2023-03-05T14:33:32.720Z,11.80
2023-03-05T14:36:09.837Z,13.97
2023-03-05T14:38:45.499Z,13.93
2023-03-05T14:41:39.780Z,16.40
2023-03-05T14:44:17.524Z,19.33
2023-03-05T14:46:52.544Z,16.30
2023-03-05T14:49:27.656Z,18.60
2023-03-05T14:52:03.174Z,13.80
2023-03-05T14:54:38.434Z,13.57
2023-03-05T14:57:24.111Z,18.00
2023-03-05T14:59:59.071Z,14.17
2023-03-05T15:02:34.026Z,14.67
2023-03-05T15:05:09.535Z,15.93
2023-03-05T15:07:45.732Z,17.07
2023-03-05T15:10:24.201Z,17.77
2023-03-05T15:12:59.245Z,17.50
2023-03-05T15:15:34.220Z,16.10
2023-03-05T15:18:21.441Z,16.53
2023-03-05T15:20:57.293Z,17.80
2023-03-05T15:23:36.548Z,18.63
2023-03-05T15:26:14.730Z,17.17
2023-03-05T15:28:49.842Z,17.70
2023-03-05T15:31:24.961Z,20.47
2023-03-05T15:34:00.137Z,15.77
2023-03-05T15:36:36.188Z,16.20
2023-03-05T15:39:11.843Z,17.67
2023-03-05T15:41:46.882Z,18.60
2023-03-05T15:44:22.373Z,17.07
2023-03-05T15:46:57.511Z,18.63
2023-03-05T15:49:33.352Z,14.07
2023-03-05T15:52:08.512Z,15.53
2023-03-05T15:54:43.803Z,16.90
2023-03-05T15:57:22.382Z,19.90
2023-03-05T15:59:57.508Z,21.20
2023-03-05T16:02:32.467Z,15.10
2023-03-05T16:05:12.406Z,14.33
2023-03-05T16:07:51.976Z,19.17
2023-03-05T16:10:28.848Z,18.60
2023-03-05T16:13:11.363Z,19.60
2023-03-05T16:15:49.003Z,23.07
2023-03-05T16:18:24.992Z,25.73
2023-03-05T16:21:00.908Z,25.63
2023-03-05T16:23:35.893Z,19.03
2023-03-05T16:26:11.397Z,22.90
2023-03-05T16:28:46.461Z,21.33
2023-03-05T16:31:21.759Z,20.30
2023-03-05T16:33:58.364Z,18.63
2023-03-05T16:36:35.640Z,20.47
2023-03-05T16:39:11.003Z,18.97
2023-03-05T16:41:46.192Z,24.30
2023-03-05T16:44:21.423Z,20.50
2023-03-05T16:46:56.515Z,18.80
2023-03-05T16:49:32.684Z,22.17
2023-03-05T16:52:18.412Z,20.60
2023-03-05T16:54:54.285Z,21.77
2023-03-05T16:57:29.360Z,17.13
2023-03-05T17:00:05.828Z,22.40
2023-03-05T17:02:41.198Z,23.90
2023-03-05T17:05:17.191Z,18.90
2023-03-05T17:07:53.582Z,18.53
2023-03-05T17:10:31.355Z,20.37
2023-03-05T17:13:06.479Z,21.20
2023-03-05T17:15:48.079Z,18.87
2023-03-05T17:18:26.841Z,22.97
2023-03-05T17:21:03.714Z,18.20
2023-03-05T17:23:39.851Z,18.37
2023-03-05T17:26:18.507Z,20.97
2023-03-05T17:28:54.649Z,22.20
2023-03-05T17:31:30.022Z,16.70
2023-03-05T17:34:05.371Z,18.63
2023-03-05T17:36:44.490Z,19.43
2023-03-05T17:39:19.790Z,18.13
2023-03-05T17:41:55.411Z,22.53
2023-03-05T17:44:30.674Z,27.97
2023-03-05T17:47:06.511Z,30.13
2023-03-05T17:49:42.417Z,33.70
2023-03-05T17:52:18.376Z,28.60
2023-03-05T17:54:53.719Z,22.63
2023-03-05T17:57:28.753Z,27.80
2023-03-05T18:00:13.581Z,26.73
2023-03-05T18:02:49.313Z,22.30
2023-03-05T18:05:25.422Z,21.80
2023-03-05T18:08:03.454Z,20.83
2023-03-05T18:10:39.496Z,19.47
2023-03-05T18:13:20.063Z,23.60
2023-03-05T18:16:01.128Z,23.23
2023-03-05T18:18:36.816Z,19.43
2023-03-05T18:21:12.130Z,18.00
2023-03-05T18:23:51.324Z,15.30
2023-03-05T18:26:26.770Z,20.03
2023-03-05T18:29:03.524Z,20.20
2023-03-05T18:31:38.653Z,20.43
2023-03-05T18:34:13.737Z,23.40
2023-03-05T18:36:48.807Z,18.50
2023-03-05T18:39:23.925Z,22.73
2023-03-05T18:41:59.046Z,21.90
2023-03-05T18:44:34.254Z,25.03
2023-03-05T18:47:09.261Z,20.43
2023-03-05T18:49:44.447Z,19.73
2023-03-05T18:52:19.849Z,23.73
2023-03-05T18:54:54.946Z,23.43
2023-03-05T18:57:30.149Z,17.80
2023-03-05T19:00:06.372Z,21.70
2023-03-05T19:02:42.477Z,23.33
2023-03-05T19:05:19.484Z,22.13
2023-03-05T19:07:56.297Z,20.40
2023-03-05T19:10:33.039Z,24.57
2023-03-05T19:13:34.785Z,25.83
2023-03-05T19:16:17.744Z,24.63
2023-03-05T19:19:15.341Z,25.10
2023-03-05T19:21:54.041Z,25.93
2023-03-05T19:24:31.373Z,23.77
2023-03-05T19:27:13.503Z,25.63
2023-03-05T19:29:48.831Z,23.00
2023-03-05T19:32:24.193Z,28.23
2023-03-05T19:34:59.279Z,26.10
2023-03-05T19:37:34.338Z,28.40
2023-03-05T19:40:10.451Z,25.23
2023-03-05T19:42:45.433Z,21.10
2023-03-05T19:45:20.318Z,23.40
2023-03-05T19:47:55.259Z,26.20
2023-03-05T19:50:30.613Z,24.73
2023-03-05T19:53:06.296Z,22.70
2023-03-05T19:55:41.658Z,29.23
2023-03-05T19:58:17.235Z,23.30
2023-03-05T20:00:52.245Z,23.83
2023-03-05T20:03:27.321Z,24.80
2023-03-05T20:06:02.364Z,27.30
2023-03-05T20:08:37.401Z,29.73
2023-03-05T20:11:14.804Z,24.70
2023-03-05T20:13:50.325Z,26.73
2023-03-05T20:16:30.060Z,32.20
2023-03-05T20:19:07.818Z,26.37
2023-03-05T20:21:43.622Z,23.90
2023-03-05T20:24:19.942Z,23.67
2023-03-05T20:26:54.940Z,21.90
2023-03-05T20:29:29.904Z,24.90
2023-03-05T20:32:04.932Z,22.63
2023-03-05T20:34:39.852Z,24.37
2023-03-05T20:37:14.762Z,24.40
2023-03-05T20:39:52.711Z,28.57
2023-03-05T20:42:28.490Z,24.63
2023-03-05T20:45:03.554Z,21.23
2023-03-05T20:47:42.275Z,20.87
2023-03-05T20:50:17.653Z,19.80
2023-03-05T20:52:52.599Z,19.67
2023-03-05T20:55:28.674Z,25.97
2023-03-05T20:58:03.610Z,20.00
2023-03-05T21:00:40.124Z,20.83
2023-03-05T21:03:15.074Z,24.93
2023-03-05T21:05:50.815Z,23.83
2023-03-05T21:08:25.709Z,21.27
2023-03-05T21:11:07.144Z,23.93
2023-03-05T21:13:45.560Z,18.90
2023-03-05T21:16:25.235Z,19.53
2023-03-05T21:19:00.431Z,18.33
2023-03-05T21:21:35.422Z,19.53
2023-03-05T21:24:10.460Z,18.90
2023-03-05T21:26:45.390Z,15.73
2023-03-05T21:29:20.355Z,16.77
2023-03-05T21:31:55.325Z,18.73
2023-03-05T21:34:30.272Z,17.50
2023-03-05T21:37:05.191Z,18.47
2023-03-05T21:39:40.056Z,15.13
2023-03-05T21:42:15.105Z,21.10
2023-03-05T21:44:50.345Z,20.07
2023-03-05T21:47:25.276Z,18.83
2023-03-05T21:50:00.327Z,17.73
2023-03-05T21:52:35.458Z,16.50
2023-03-05T21:55:17.407Z,15.10
2023-03-05T21:57:52.335Z,18.97
2023-03-05T22:00:28.172Z,19.87
2023-03-05T22:03:03.293Z,13.80
2023-03-05T22:05:38.232Z,16.80
2023-03-05T22:08:13.184Z,17.40
2023-03-05T22:10:48.442Z,17.00
2023-03-05T22:13:23.587Z,14.33
2023-03-05T22:15:59.620Z,17.80
2023-03-05T22:18:35.238Z,17.63
2023-03-05T22:21:23.544Z,21.73
2023-03-05T22:23:58.860Z,22.90
2023-03-05T22:26:40.016Z,21.67
2023-03-05T22:29:16.807Z,16.00
2023-03-05T22:31:54.981Z,13.90
2023-03-05T22:34:29.996Z,17.40
2023-03-05T22:37:05.180Z,16.53
2023-03-05T22:39:40.104Z,18.40
2023-03-05T22:42:14.986Z,13.00
2023-03-05T22:44:50.540Z,12.73
2023-03-05T22:47:27.218Z,11.30
2023-03-05T22:50:02.547Z,12.47
2023-03-05T22:52:37.449Z,15.00
2023-03-05T22:55:15.086Z,8.50
2023-03-05T22:57:50.027Z,10.60
2023-03-05T23:00:26.690Z,11.37
2023-03-05T23:03:01.852Z,12.77
2023-03-05T23:05:39.178Z,11.13
2023-03-05T23:08:14.136Z,12.57
2023-03-05T23:10:49.135Z,10.67
2023-03-05T23:13:24.053Z,10.60
2023-03-05T23:15:59.112Z,13.03
2023-03-05T23:18:34.145Z,11.43
2023-03-05T23:21:09.048Z,10.47
2023-03-05T23:23:44.076Z,10.37
2023-03-05T23:26:19.046Z,12.40
2023-03-05T23:28:53.935Z,11.13
2023-03-05T23:31:28.833Z,8.37
2023-03-05T23:34:03.837Z,14.50
2023-03-05T23:36:39.116Z,10.03
2023-03-05T23:39:14.159Z,8.23
2023-03-05T23:41:49.048Z,12.43
2023-03-05T23:44:24.020Z,7.70
2023-03-05T23:46:59.058Z,13.33
2023-03-05T23:49:34.043Z,17.43
2023-03-05T23:52:08.950Z,11.17
2023-03-05T23:54:43.937Z,12.10
2023-03-05T23:57:18.923Z,11.23
2023-03-05T23:59:53.818Z,15.90
